Time;durP1;ratioP1;P1;durP2;ratioP2;P2;SDS_P1;SDS_P2;PMS_P1;PMS_P2;Temp;Humidity;BMP_temperature;BMP_pressure;BME280_temperature;BME280_humidity;BME280_pressure;Samples;Min_cycle;Max_cycle;Signal;HPM_P1;HPM_P2
2022/12/27 00:02:13;;;;;;;4.97;1.73;;;;;;;;;;5024490;28;20037;-80
2022/12/27 00:04:38;;;;;;;5.88;1.92;;;;;;;;;;5025791;28;20041;-80
2022/12/27 00:07:04;;;;;;;6.97;1.65;;;;;;;;;;5042741;28;20449;-80
2022/12/27 00:09:29;;;;;;;4.78;1.92;;;;;;;;;;5016246;28;20040;-80
2022/12/27 00:11:55;;;;;;;2.30;1.38;;;;;;;;;;5030337;28;20053;-81
2022/12/27 00:14:20;;;;;;;3.08;1.50;;;;;;;;;;5043076;28;20040;-81
2022/12/27 00:16:45;;;;;;;6.70;1.42;;;;;;;;;;5024618;28;20041;-80
2022/12/27 00:19:11;;;;;;;7.60;2.25;;;;;;;;;;5023700;28;20051;-80
2022/12/27 00:21:36;;;;;;;7.68;1.80;;;;;;;;;;5038612;28;20811;-80
2022/12/27 00:24:02;;;;;;;5.07;2.00;;;;;;;;;;5017029;28;20052;-81
2022/12/27 00:26:31;;;;;;;3.92;1.85;;;;;;;;;;5012676;28;20039;-80
2022/12/27 00:28:57;;;;;;;5.75;1.70;;;;;;;;;;5018203;28;20399;-80
2022/12/27 00:31:23;;;;;;;3.88;1.60;;;;;;;;;;5034718;28;20592;-80
2022/12/27 00:33:51;;;;;;;8.13;1.80;;;;;;;;;;5024708;28;20056;-80
2022/12/27 00:36:20;;;;;;;9.85;1.92;;;;;;;;;;5043208;28;20032;-80
2022/12/27 00:38:46;;;;;;;7.40;1.90;;;;;;;;;;5039770;28;20029;-80
2022/12/27 00:41:12;;;;;;;3.90;1.65;;;;;;;;;;5018876;28;20037;-80
2022/12/27 00:43:38;;;;;;;7.25;2.38;;;;;;;;;;5038109;28;20036;-80
2022/12/27 00:46:04;;;;;;;5.50;2.10;;;;;;;;;;5024376;28;20536;-80
2022/12/27 00:48:30;;;;;;;7.10;2.33;;;;;;;;;;5024383;28;20069;-80
2022/12/27 00:51:03;;;;;;;3.17;1.50;;;;;;;;;;5043273;28;20649;-80
2022/12/27 00:53:29;;;;;;;;;;;;;;;;;;5063536;28;20045;-80
2022/12/27 00:55:54;;;;;;;5.03;1.38;;;;;;;;;;5063590;28;19913;-80
2022/12/27 00:58:20;;;;;;;3.75;1.63;;;;;;;;;;5047534;28;20067;-80
2022/12/27 01:00:46;;;;;;;4.30;2.00;;;;;;;;;;5026186;28;20055;-80
2022/12/27 01:03:11;;;;;;;4.20;1.75;;;;;;;;;;5028235;28;20526;-80
2022/12/27 01:05:37;;;;;;;7.63;1.60;;;;;;;;;;5029822;28;20025;-80
2022/12/27 01:08:03;;;;;;;4.53;1.40;;;;;;;;;;5047562;28;20052;-80
2022/12/27 01:10:28;;;;;;;11.95;2.25;;;;;;;;;;5038102;28;20040;-80
2022/12/27 01:12:54;;;;;;;4.93;1.77;;;;;;;;;;5026692;28;20670;-80
2022/12/27 01:15:19;;;;;;;6.53;2.08;;;;;;;;;;5035702;28;20029;-80
2022/12/27 01:17:45;;;;;;;5.15;1.55;;;;;;;;;;5026095;28;20426;-80
2022/12/27 01:20:10;;;;;;;7.22;1.70;;;;;;;;;;5038179;28;20057;-80
2022/12/27 01:22:36;;;;;;;8.40;2.35;;;;;;;;;;5024180;28;20068;-80
2022/12/27 01:25:02;;;;;;;9.90;1.90;;;;;;;;;;5030096;28;20138;-80
2022/12/27 01:27:27;;;;;;;22.08;2.30;;;;;;;;;;5016806;28;20036;-80
2022/12/27 01:29:53;;;;;;;6.78;1.70;;;;;;;;;;5046606;28;20029;-80
2022/12/27 01:32:18;;;;;;;10.82;2.03;;;;;;;;;;5025881;28;20043;-80
2022/12/27 01:34:43;;;;;;;3.40;1.20;;;;;;;;;;5014130;28;20037;-80
2022/12/27 01:37:09;;;;;;;7.15;1.58;;;;;;;;;;5044647;28;20128;-80
2022/12/27 01:39:34;;;;;;;7.40;1.70;;;;;;;;;;5028297;28;20047;-80
2022/12/27 01:44:49;;;;;;;6.75;1.60;;;;;;;;;;5034868;28;20031;-80
2022/12/27 01:47:22;;;;;;;2.65;1.40;;;;;;;;;;5011251;28;20033;-81
2022/12/27 01:49:55;;;;;;;5.07;1.83;;;;;;;;;;5006474;28;20507;-81
2022/12/27 01:52:22;;;;;;;9.18;1.58;;;;;;;;;;5042515;28;20039;-80
2022/12/27 01:54:48;;;;;;;6.65;1.90;;;;;;;;;;5019253;28;20426;-80
2022/12/27 01:57:14;;;;;;;5.43;2.03;;;;;;;;;;5044450;28;20040;-80
2022/12/27 01:59:40;;;;;;;5.05;1.83;;;;;;;;;;5028509;28;20032;-80
2022/12/27 02:02:05;;;;;;;4.57;1.55;;;;;;;;;;5042827;28;20104;-80
2022/12/27 02:04:32;;;;;;;11.52;2.10;;;;;;;;;;5045252;28;20132;-80
2022/12/27 02:06:58;;;;;;;10.18;2.35;;;;;;;;;;5046037;28;20518;-80
2022/12/27 02:09:41;;;;;;;5.47;1.90;;;;;;;;;;5044910;28;20036;-80
2022/12/27 02:12:08;;;;;;;5.10;1.73;;;;;;;;;;5039899;28;20032;-80
2022/12/27 02:14:39;;;;;;;6.20;1.92;;;;;;;;;;5025293;28;20053;-80
2022/12/27 02:17:19;;;;;;;10.23;2.25;;;;;;;;;;5017271;28;20045;-80
2022/12/27 02:20:08;;;;;;;3.25;1.90;;;;;;;;;;5020933;28;20895;-80
2022/12/27 02:26:09;;;;;;;8.38;1.98;;;;;;;;;;5044581;28;20094;-80
2022/12/27 02:28:54;;;;;;;5.20;1.95;;;;;;;;;;5023776;28;20032;-80
2022/12/27 02:31:28;;;;;;;5.03;1.98;;;;;;;;;;5026522;28;20047;-80
2022/12/27 02:33:56;;;;;;;5.88;2.67;;;;;;;;;;5027326;28;20042;-80
2022/12/27 02:36:31;;;;;;;7.63;2.03;;;;;;;;;;5025924;28;20110;-80
2022/12/27 02:38:59;;;;;;;5.03;2.30;;;;;;;;;;5024456;28;20025;-80
2022/12/27 02:53:02;;;;;;;5.95;1.75;;;;;;;;;;5045982;28;20090;-80
2022/12/27 02:58:49;;;;;;;9.63;2.13;;;;;;;;;;5042220;28;20118;-80
2022/12/27 03:04:25;;;;;;;3.35;2.08;;;;;;;;;;5045785;28;20576;-80
2022/12/27 03:07:02;;;;;;;4.97;1.80;;;;;;;;;;5044989;28;20124;-80
2022/12/27 03:18:19;;;;;;;6.30;2.33;;;;;;;;;;5044346;28;20094;-80
2022/12/27 03:26:17;;;;;;;2.67;1.77;;;;;;;;;;5045011;28;20091;-81
2022/12/27 03:34:38;;;;;;;6.13;2.30;;;;;;;;;;5042551;28;20587;-80
2022/12/27 03:40:09;;;;;;;3.25;1.90;;;;;;;;;;5044276;28;20048;-80
2022/12/27 03:48:23;;;;;;;8.02;2.15;;;;;;;;;;5025066;28;20081;-81
2022/12/27 03:51:03;;;;;;;10.38;1.88;;;;;;;;;;5037031;28;20010;-80
2022/12/27 03:53:50;;;;;;;9.50;2.28;;;;;;;;;;5028170;28;20040;-80
2022/12/27 03:56:18;;;;;;;8.25;2.15;;;;;;;;;;5045770;28;20113;-81
2022/12/27 03:58:44;;;;;;;4.57;1.98;;;;;;;;;;5026871;28;20590;-81
2022/12/27 04:01:09;;;;;;;5.80;2.25;;;;;;;;;;5045398;28;20037;-80
2022/12/27 04:03:34;;;;;;;7.93;1.95;;;;;;;;;;5026470;28;20410;-80
2022/12/27 04:05:59;;;;;;;7.68;2.33;;;;;;;;;;5045604;28;20021;-80
2022/12/27 04:35:42;;;;;;;;;;;;;;;;;;5041512;28;20109;-80
2022/12/27 04:38:07;;;;;;;4.47;1.90;;;;;;;;;;5027538;28;20463;-80
2022/12/27 04:57:12;;;;;;;8.45;2.00;;;;;;;;;;5048362;28;20418;-80
2022/12/27 05:02:21;;;;;;;4.43;1.73;;;;;;;;;;5047536;28;20445;-80
2022/12/27 05:04:47;;;;;;;8.68;1.85;;;;;;;;;;5027215;28;20045;-80
2022/12/27 05:15:29;;;;;;;3.45;1.85;;;;;;;;;;5049830;28;20032;-80
2022/12/27 05:17:55;;;;;;;8.45;2.63;;;;;;;;;;5021059;28;20030;-80
2022/12/27 05:20:21;;;;;;;9.93;2.30;;;;;;;;;;5017774;28;20045;-79
2022/12/27 05:25:37;;;;;;;5.32;2.25;;;;;;;;;;5048370;28;20056;-80
2022/12/27 05:28:05;;;;;;;7.10;1.55;;;;;;;;;;5037895;28;20028;-80
2022/12/27 05:30:35;;;;;;;5.97;2.10;;;;;;;;;;5048461;28;20994;-80
2022/12/27 05:33:01;;;;;;;10.30;2.70;;;;;;;;;;5030281;28;20025;-80
2022/12/27 05:35:26;;;;;;;2.47;1.48;;;;;;;;;;5026150;28;20025;-80
2022/12/27 05:37:54;;;;;;;7.03;2.25;;;;;;;;;;5029661;28;20060;-80
2022/12/27 05:40:19;;;;;;;7.40;1.90;;;;;;;;;;5047837;28;20041;-81
2022/12/27 05:42:44;;;;;;;8.48;2.40;;;;;;;;;;5045427;28;20098;-80
2022/12/27 05:45:11;;;;;;;13.65;2.30;;;;;;;;;;5047938;28;20033;-80
2022/12/27 05:47:36;;;;;;;9.93;2.50;;;;;;;;;;5046068;28;20044;-80
2022/12/27 05:50:01;;;;;;;6.90;1.52;;;;;;;;;;5021103;28;20071;-80
2022/12/27 05:52:29;;;;;;;6.78;1.80;;;;;;;;;;5045953;28;20127;-80
2022/12/27 05:54:54;;;;;;;3.05;2.00;;;;;;;;;;5041435;28;20037;-80
2022/12/27 05:57:19;;;;;;;4.55;1.83;;;;;;;;;;5038643;28;20173;-80
2022/12/27 05:59:44;;;;;;;6.90;2.10;;;;;;;;;;5016566;28;20436;-80
2022/12/27 06:02:10;;;;;;;3.20;1.70;;;;;;;;;;5043735;28;20051;-80
2022/12/27 06:04:35;;;;;;;6.05;1.95;;;;;;;;;;5028588;28;20091;-80
2022/12/27 06:07:00;;;;;;;5.68;2.40;;;;;;;;;;5028105;28;20128;-79
2022/12/27 06:09:26;;;;;;;5.30;2.15;;;;;;;;;;5026061;28;20033;-81
2022/12/27 06:11:52;;;;;;;5.63;1.60;;;;;;;;;;5029925;28;20024;-80
2022/12/27 06:14:17;;;;;;;5.00;1.77;;;;;;;;;;5047165;28;20471;-81
2022/12/27 06:16:42;;;;;;;1.88;1.38;;;;;;;;;;5028844;28;20516;-81
2022/12/27 06:19:08;;;;;;;6.55;1.85;;;;;;;;;;5027359;28;20803;-81
2022/12/27 06:21:33;;;;;;;6.95;1.88;;;;;;;;;;5029592;28;20430;-80
2022/12/27 06:23:58;;;;;;;5.78;2.05;;;;;;;;;;5026838;28;20696;-80
2022/12/27 06:26:26;;;;;;;6.63;1.80;;;;;;;;;;5026440;28;20029;-80
2022/12/27 06:28:54;;;;;;;6.97;1.75;;;;;;;;;;5013677;28;20036;-80
2022/12/27 06:31:20;;;;;;;3.20;1.42;;;;;;;;;;5047255;28;20040;-80
2022/12/27 06:33:46;;;;;;;5.45;1.50;;;;;;;;;;5027880;28;20439;-81
2022/12/27 06:36:14;;;;;;;6.28;3.15;;;;;;;;;;5046375;28;20044;-80
2022/12/27 06:38:39;;;;;;;6.97;2.58;;;;;;;;;;5027092;28;20029;-80
2022/12/27 06:41:09;;;;;;;8.63;1.83;;;;;;;;;;5033277;28;20043;-80
2022/12/27 06:43:35;;;;;;;5.72;2.05;;;;;;;;;;5037543;28;20036;-80
2022/12/27 06:46:02;;;;;;;4.60;1.75;;;;;;;;;;5041778;28;20033;-80
2022/12/27 06:48:28;;;;;;;4.35;1.90;;;;;;;;;;5026151;28;20705;-80
2022/12/27 06:50:54;;;;;;;2.53;1.55;;;;;;;;;;5022433;28;20028;-81
2022/12/27 06:53:19;;;;;;;4.30;1.60;;;;;;;;;;5015291;28;20040;-80
2022/12/27 06:55:44;;;;;;;4.90;1.63;;;;;;;;;;5042943;28;20125;-81
2022/12/27 06:58:11;;;;;;;6.28;1.88;;;;;;;;;;5044411;28;20414;-80
2022/12/27 07:00:37;;;;;;;3.03;1.33;;;;;;;;;;5013907;28;20052;-80
2022/12/27 07:03:03;;;;;;;2.53;1.45;;;;;;;;;;5027177;28;20065;-80
2022/12/27 07:05:28;;;;;;;3.22;1.75;;;;;;;;;;5045678;28;20670;-81
2022/12/27 07:07:54;;;;;;;3.03;1.60;;;;;;;;;;5027203;28;20029;-80
2022/12/27 07:10:19;;;;;;;5.45;1.88;;;;;;;;;;5045323;28;20033;-80
2022/12/27 07:12:45;;;;;;;3.47;1.80;;;;;;;;;;5046184;28;20033;-80
2022/12/27 07:15:10;;;;;;;3.63;1.70;;;;;;;;;;5027410;28;20032;-80
2022/12/27 07:17:36;;;;;;;6.78;1.70;;;;;;;;;;5028181;28;20078;-80
2022/12/27 07:20:03;;;;;;;3.80;1.85;;;;;;;;;;5027069;28;20053;-80
2022/12/27 07:22:28;;;;;;;6.78;1.80;;;;;;;;;;5027253;28;20048;-80
2022/12/27 07:24:54;;;;;;;4.55;1.60;;;;;;;;;;5046030;28;20040;-80
2022/12/27 07:27:19;;;;;;;4.78;2.33;;;;;;;;;;5037728;28;20041;-81
2022/12/27 07:29:44;;;;;;;5.10;1.90;;;;;;;;;;5037143;28;20445;-81
2022/12/27 07:32:10;;;;;;;11.32;2.55;;;;;;;;;;5044394;28;20810;-81
2022/12/27 07:34:38;;;;;;;6.05;2.08;;;;;;;;;;5045523;28;20033;-81
2022/12/27 07:37:04;;;;;;;4.07;2.20;;;;;;;;;;5044763;28;20140;-81
2022/12/27 07:39:29;;;;;;;5.35;1.85;;;;;;;;;;5036646;28;20471;-81
2022/12/27 07:41:54;;;;;;;4.78;1.55;;;;;;;;;;5027825;28;20478;-81
2022/12/27 07:44:20;;;;;;;3.80;2.00;;;;;;;;;;5044645;28;20041;-81
2022/12/27 07:46:45;;;;;;;6.60;2.00;;;;;;;;;;5044874;28;20040;-81
2022/12/27 07:49:11;;;;;;;5.07;1.73;;;;;;;;;;5026882;28;20106;-82
2022/12/27 07:51:36;;;;;;;6.32;1.75;;;;;;;;;;5044820;28;20033;-81
2022/12/27 07:54:02;;;;;;;3.53;1.70;;;;;;;;;;5034028;28;20112;-81
2022/12/27 07:56:28;;;;;;;6.13;2.00;;;;;;;;;;5026766;28;20495;-81
2022/12/27 07:58:57;;;;;;;6.03;1.80;;;;;;;;;;5027512;28;20455;-80
2022/12/27 08:01:24;;;;;;;5.22;1.50;;;;;;;;;;5015391;28;20045;-81
2022/12/27 08:03:49;;;;;;;6.65;2.10;;;;;;;;;;5020648;28;20044;-81
2022/12/27 08:06:30;;;;;;;5.70;2.03;;;;;;;;;;5044828;28;20029;-81
2022/12/27 08:08:58;;;;;;;4.88;2.33;;;;;;;;;;5044686;28;20112;-81
2022/12/27 08:11:25;;;;;;;6.20;2.08;;;;;;;;;;5026505;28;20076;-81
2022/12/27 08:13:51;;;;;;;7.90;2.40;;;;;;;;;;5043039;28;20043;-81
2022/12/27 08:16:20;;;;;;;4.90;1.52;;;;;;;;;;5033177;28;20526;-81
2022/12/27 08:18:45;;;;;;;4.70;2.00;;;;;;;;;;5013793;28;20453;-81
2022/12/27 08:21:11;;;;;;;8.23;2.55;;;;;;;;;;5005739;28;20694;-82
2022/12/27 08:23:36;;;;;;;6.78;2.30;;;;;;;;;;4999940;28;20021;-81
2022/12/27 08:26:02;;;;;;;4.70;2.17;;;;;;;;;;5034178;28;20036;-82
2022/12/27 08:28:30;;;;;;;6.28;2.25;;;;;;;;;;5030376;28;20037;-81
2022/12/27 08:30:56;;;;;;;5.18;2.13;;;;;;;;;;5043397;28;20021;-81
2022/12/27 08:33:22;;;;;;;9.30;2.30;;;;;;;;;;5047356;28;20036;-81
2022/12/27 08:35:47;;;;;;;9.40;3.00;;;;;;;;;;5028069;28;20449;-81
2022/12/27 08:38:12;;;;;;;8.30;1.85;;;;;;;;;;5029225;28;20579;-81
2022/12/27 08:40:39;;;;;;;6.50;2.33;;;;;;;;;;5028622;28;20059;-81
2022/12/27 08:43:05;;;;;;;6.88;2.45;;;;;;;;;;5023459;28;20634;-81
2022/12/27 08:45:30;;;;;;;10.38;2.25;;;;;;;;;;5047182;28;20123;-81
2022/12/27 08:48:00;;;;;;;4.35;1.90;;;;;;;;;;5029959;28;20482;-81
2022/12/27 08:50:26;;;;;;;8.25;2.25;;;;;;;;;;5046442;28;20132;-81
2022/12/27 08:52:51;;;;;;;5.75;2.03;;;;;;;;;;5028004;28;20108;-81
2022/12/27 08:55:20;;;;;;;5.05;2.08;;;;;;;;;;5028323;28;20044;-82
2022/12/27 08:57:45;;;;;;;9.50;2.30;;;;;;;;;;5029096;28;20033;-81
2022/12/27 09:00:14;;;;;;;6.43;2.40;;;;;;;;;;5046835;28;20021;-81
2022/12/27 09:02:39;;;;;;;4.85;2.03;;;;;;;;;;5033582;28;20019;-80
2022/12/27 09:05:04;;;;;;;6.05;2.40;;;;;;;;;;5016948;28;20045;-79
2022/12/27 09:07:30;;;;;;;6.22;1.98;;;;;;;;;;5021689;28;20102;-80
2022/12/27 09:09:56;;;;;;;3.00;1.90;;;;;;;;;;5028907;28;20061;-79
2022/12/27 09:12:21;;;;;;;8.50;2.25;;;;;;;;;;5029522;28;20071;-80
2022/12/27 09:14:46;;;;;;;5.15;2.30;;;;;;;;;;5047583;28;20028;-80
2022/12/27 09:17:12;;;;;;;9.90;2.33;;;;;;;;;;5022808;28;21067;-80
2022/12/27 09:19:38;;;;;;;8.23;2.13;;;;;;;;;;5046554;28;20149;-79
2022/12/27 09:22:03;;;;;;;6.13;2.25;;;;;;;;;;5034771;28;20048;-78
2022/12/27 09:24:28;;;;;;;5.20;2.03;;;;;;;;;;5036123;28;20032;-78
2022/12/27 09:26:54;;;;;;;6.70;2.50;;;;;;;;;;5031622;28;20036;-79
2022/12/27 09:29:19;;;;;;;7.55;2.30;;;;;;;;;;5027448;28;20083;-80
2022/12/27 09:31:44;;;;;;;5.95;1.90;;;;;;;;;;5046408;28;20033;-80
2022/12/27 09:34:10;;;;;;;2.78;1.50;;;;;;;;;;5046499;28;20044;-80
2022/12/27 09:36:36;;;;;;;3.10;1.58;;;;;;;;;;5029325;28;20028;-80
2022/12/27 09:39:02;;;;;;;5.38;2.10;;;;;;;;;;5046207;28;20100;-79
2022/12/27 09:41:45;;;;;;;5.97;2.22;;;;;;;;;;5024895;28;20123;-80
2022/12/27 09:44:20;;;;;;;;;;;;;;;;;;5026518;28;20033;-80
2022/12/27 09:46:59;;;;;;;8.80;2.72;;;;;;;;;;5040476;28;19964;-80
2022/12/27 09:49:37;;;;;;;4.80;2.38;;;;;;;;;;5019947;28;20140;-80
2022/12/27 09:52:16;;;;;;;6.43;2.20;;;;;;;;;;5027226;28;20037;-80
2022/12/27 09:54:41;;;;;;;5.78;2.17;;;;;;;;;;5038931;28;20116;-80
2022/12/27 09:57:22;;;;;;;11.10;3.05;;;;;;;;;;5044295;28;20107;-80
2022/12/27 09:59:51;;;;;;;6.72;2.05;;;;;;;;;;5033044;28;20022;-80
2022/12/27 10:02:25;;;;;;;10.68;2.13;;;;;;;;;;5021163;28;20548;-80
2022/12/27 10:04:52;;;;;;;7.85;2.20;;;;;;;;;;5019162;28;20416;-80
2022/12/27 10:07:23;;;;;;;4.47;2.22;;;;;;;;;;5045509;28;20029;-80
2022/12/27 10:10:12;;;;;;;6.43;2.03;;;;;;;;;;5017953;28;20064;-80
2022/12/27 10:13:12;;;;;;;13.25;2.13;;;;;;;;;;5026563;28;20037;-80
2022/12/27 10:15:56;;;;;;;5.05;1.40;;;;;;;;;;5039150;28;20116;-80
2022/12/27 10:18:30;;;;;;;4.82;2.38;;;;;;;;;;5043881;28;20044;-79
2022/12/27 10:21:07;;;;;;;7.07;2.15;;;;;;;;;;5028640;28;20123;-80
2022/12/27 10:23:36;;;;;;;9.02;1.92;;;;;;;;;;5045836;28;20518;-80
2022/12/27 10:26:11;;;;;;;3.90;1.67;;;;;;;;;;5019486;28;20025;-80
2022/12/27 10:28:45;;;;;;;4.07;2.08;;;;;;;;;;5033396;28;20047;-80
2022/12/27 10:31:16;;;;;;;4.25;1.95;;;;;;;;;;5027000;28;20116;-81
2022/12/27 10:33:43;;;;;;;4.20;1.85;;;;;;;;;;5027258;28;20395;-80
2022/12/27 10:36:13;;;;;;;8.75;1.88;;;;;;;;;;5044326;28;20023;-81
2022/12/27 10:38:38;;;;;;;2.03;1.33;;;;;;;;;;5022934;28;20013;-80
2022/12/27 10:41:29;;;;;;;3.70;1.60;;;;;;;;;;5043783;28;20036;-80
2022/12/27 10:43:54;;;;;;;9.02;1.80;;;;;;;;;;5022801;28;20129;-80
2022/12/27 10:46:24;;;;;;;6.50;1.67;;;;;;;;;;5020706;28;20120;-81
2022/12/27 10:49:00;;;;;;;6.57;1.63;;;;;;;;;;5036867;28;20036;-81
2022/12/27 10:51:33;;;;;;;9.80;1.55;;;;;;;;;;5027033;28;20036;-81
2022/12/27 10:54:12;;;;;;;10.77;2.13;;;;;;;;;;5022801;28;20024;-80
2022/12/27 10:56:40;;;;;;;4.57;1.58;;;;;;;;;;5045618;28;20021;-79
2022/12/27 10:59:16;;;;;;;7.78;2.05;;;;;;;;;;5045021;28;20043;-80
2022/12/27 11:01:44;;;;;;;10.73;2.00;;;;;;;;;;5027419;28;20021;-80
2022/12/27 11:04:15;;;;;;;8.23;1.58;;;;;;;;;;5044885;28;20036;-80
2022/12/27 11:06:42;;;;;;;10.68;1.83;;;;;;;;;;5045222;28;20071;-80
2022/12/27 11:09:33;;;;;;;8.25;1.45;;;;;;;;;;5038788;28;20279;-80
2022/12/27 11:12:12;;;;;;;5.45;1.70;;;;;;;;;;5032295;28;20017;-80
2022/12/27 11:14:39;;;;;;;8.82;1.60;;;;;;;;;;5026450;28;20031;-80
2022/12/27 11:17:13;;;;;;;3.42;1.70;;;;;;;;;;5025501;28;20075;-80
2022/12/27 11:19:45;;;;;;;5.82;1.98;;;;;;;;;;5025313;28;20049;-80
2022/12/27 11:22:11;;;;;;;4.43;1.67;;;;;;;;;;5022590;28;20041;-81
2022/12/27 11:24:44;;;;;;;9.15;1.98;;;;;;;;;;5016273;28;20025;-80
2022/12/27 11:27:21;;;;;;;6.25;2.10;;;;;;;;;;5023481;28;20017;-82
2022/12/27 11:29:46;;;;;;;9.70;1.88;;;;;;;;;;5024929;28;20017;-80
2022/12/27 11:32:13;;;;;;;4.60;1.75;;;;;;;;;;5027048;28;20029;-80
2022/12/27 11:34:44;;;;;;;7.85;2.17;;;;;;;;;;5044779;28;20036;-80
2022/12/27 11:37:16;;;;;;;4.80;1.85;;;;;;;;;;5026956;28;20072;-80
2022/12/27 11:39:45;;;;;;;8.18;1.80;;;;;;;;;;5043008;28;20029;-80
2022/12/27 11:42:20;;;;;;;7.80;2.38;;;;;;;;;;5026493;28;20053;-80
2022/12/27 11:45:03;;;;;;;5.30;1.58;;;;;;;;;;5045315;28;20135;-80
2022/12/27 11:47:57;;;;;;;8.45;1.95;;;;;;;;;;5044101;28;20025;-80
2022/12/27 11:50:26;;;;;;;6.15;1.60;;;;;;;;;;5019202;28;20048;-80
2022/12/27 11:53:13;;;;;;;4.05;1.55;;;;;;;;;;5044116;28;20029;-81
2022/12/27 11:56:08;;;;;;;10.38;1.90;;;;;;;;;;5026379;28;20032;-81
2022/12/27 11:58:41;;;;;;;3.95;1.80;;;;;;;;;;5025546;28;20044;-81
2022/12/27 12:01:27;;;;;;;5.55;1.60;;;;;;;;;;5026709;28;20033;-80
2022/12/27 12:04:34;;;;;;;6.20;2.10;;;;;;;;;;5043151;28;20029;-80
2022/12/27 12:07:30;;;;;;;3.85;1.63;;;;;;;;;;4998978;28;20641;-80
2022/12/27 12:10:20;;;;;;;5.47;1.40;;;;;;;;;;4983601;28;20045;-80
2022/12/27 12:13:00;;;;;;;2.15;1.10;;;;;;;;;;5033050;28;20071;-80
2022/12/27 12:15:35;;;;;;;3.92;1.70;;;;;;;;;;5025080;28;20123;-80
2022/12/27 12:18:09;;;;;;;5.15;1.67;;;;;;;;;;5040394;28;20137;-80
2022/12/27 12:20:43;;;;;;;4.22;1.60;;;;;;;;;;5025790;28;20045;-80
2022/12/27 12:23:14;;;;;;;2.95;1.65;;;;;;;;;;5028364;28;20056;-80
2022/12/27 12:26:02;;;;;;;5.07;1.67;;;;;;;;;;5042234;28;20033;-80
2022/12/27 12:28:33;;;;;;;6.03;1.63;;;;;;;;;;5013465;28;20029;-80
2022/12/27 12:31:21;;;;;;;3.05;1.70;;;;;;;;;;5037624;28;20121;-80
2022/12/27 12:33:49;;;;;;;5.57;1.80;;;;;;;;;;5034387;28;20146;-80
2022/12/27 12:36:52;;;;;;;5.88;1.73;;;;;;;;;;5032771;28;20029;-80
2022/12/27 12:39:39;;;;;;;12.15;1.80;;;;;;;;;;5043415;28;20023;-80
2022/12/27 12:42:19;;;;;;;4.10;1.40;;;;;;;;;;5026227;28;20028;-80
2022/12/27 12:44:51;;;;;;;4.22;1.40;;;;;;;;;;5020923;28;20111;-80
2022/12/27 12:47:22;;;;;;;5.43;1.52;;;;;;;;;;5044485;28;20553;-80
2022/12/27 12:49:50;;;;;;;3.35;1.40;;;;;;;;;;5036149;28;20037;-80
2022/12/27 12:52:43;;;;;;;4.07;1.20;;;;;;;;;;5021002;28;20041;-79
2022/12/27 12:55:34;;;;;;;5.32;1.75;;;;;;;;;;5044188;28;20047;-81
2022/12/27 12:58:09;;;;;;;4.55;1.35;;;;;;;;;;5026129;28;20078;-80
2022/12/27 13:00:40;;;;;;;8.30;1.92;;;;;;;;;;5046481;28;20037;-80
2022/12/27 13:03:09;;;;;;;4.40;1.60;;;;;;;;;;5029906;28;20067;-80
2022/12/27 13:06:10;;;;;;;6.32;1.60;;;;;;;;;;5029916;28;20017;-81
2022/12/27 13:08:54;;;;;;;4.85;1.55;;;;;;;;;;5047106;28;20037;-80
2022/12/27 13:11:31;;;;;;;9.63;3.22;;;;;;;;;;5015022;28;20414;-80
2022/12/27 13:14:26;;;;;;;4.03;1.80;;;;;;;;;;5042754;28;20569;-80
2022/12/27 13:17:14;;;;;;;3.63;1.77;;;;;;;;;;5045568;28;20029;-80
2022/12/27 13:20:05;;;;;;;5.75;1.48;;;;;;;;;;5025954;28;20099;-81
2022/12/27 13:22:55;;;;;;;6.47;1.85;;;;;;;;;;5013192;28;20045;-81
2022/12/27 13:25:59;;;;;;;9.27;1.92;;;;;;;;;;5025387;28;20021;-81
2022/12/27 13:28:32;;;;;;;5.65;1.52;;;;;;;;;;4977562;28;20038;-79
2022/12/27 13:31:29;;;;;;;3.25;1.23;;;;;;;;;;5038778;28;20039;-80
2022/12/27 13:34:33;;;;;;;7.95;2.60;;;;;;;;;;5037506;28;20511;-80
2022/12/27 13:36:58;;;;;;;;;;;;;;;;;;5016510;28;20030;-80
2022/12/27 13:39:51;;;;;;;2.53;1.60;;;;;;;;;;5027294;28;20413;-80
2022/12/27 13:42:41;;;;;;;5.27;2.50;;;;;;;;;;5025513;28;20064;-80
2022/12/27 13:45:48;;;;;;;4.43;1.90;;;;;;;;;;5027979;28;20061;-81
2022/12/27 13:48:42;;;;;;;6.35;1.98;;;;;;;;;;5011310;28;20021;-80
2022/12/27 13:51:13;;;;;;;;;;;;;;;;;;5013037;28;20557;-80
2022/12/27 13:54:05;;;;;;;5.80;2.22;;;;;;;;;;5027321;28;20214;-80
2022/12/27 13:56:50;;;;;;;2.20;1.33;;;;;;;;;;5027062;28;20523;-80
2022/12/27 13:59:48;;;;;;;3.60;1.85;;;;;;;;;;5015204;28;20087;-80
2022/12/27 14:02:38;;;;;;;7.78;2.63;;;;;;;;;;5022275;28;20042;-80
2022/12/27 14:05:21;;;;;;;4.97;1.77;;;;;;;;;;5024090;28;20052;-80
2022/12/27 14:08:00;;;;;;;8.38;2.25;;;;;;;;;;5026943;28;20033;-80
2022/12/27 14:10:42;;;;;;;3.45;1.58;;;;;;;;;;5023651;28;20061;-80
2022/12/27 14:13:09;;;;;;;6.88;2.03;;;;;;;;;;5024464;28;20044;-81
2022/12/27 14:15:53;;;;;;;11.80;2.20;;;;;;;;;;5025748;28;20091;-79
2022/12/27 14:18:38;;;;;;;6.45;1.80;;;;;;;;;;5026366;28;20048;-83
2022/12/27 14:21:26;;;;;;;5.63;1.67;;;;;;;;;;5025220;28;20042;-81
2022/12/27 14:24:15;;;;;;;8.98;1.92;;;;;;;;;;5027040;28;20022;-81
2022/12/27 14:27:18;;;;;;;3.42;1.45;;;;;;;;;;5038228;28;20049;-82
2022/12/27 14:30:18;;;;;;;10.60;2.03;;;;;;;;;;5041230;28;20048;-83
2022/12/27 14:33:11;;;;;;;4.05;1.80;;;;;;;;;;5023723;28;20080;-83
2022/12/27 14:36:13;;;;;;;7.53;1.80;;;;;;;;;;5025700;28;20145;-82
2022/12/27 14:39:17;;;;;;;11.07;1.60;;;;;;;;;;5023973;28;20045;-82
2022/12/27 14:42:17;;;;;;;2.38;1.25;;;;;;;;;;5025157;28;20052;-82
2022/12/27 14:45:21;;;;;;;7.40;1.80;;;;;;;;;;5024909;28;20048;-82
2022/12/27 14:48:28;;;;;;;6.43;1.92;;;;;;;;;;4980329;28;20041;-82
2022/12/27 14:51:40;;;;;;;4.75;1.70;;;;;;;;;;5007042;28;20601;-82
2022/12/27 14:54:27;;;;;;;4.82;1.48;;;;;;;;;;5039754;28;20040;-82
2022/12/27 14:57:19;;;;;;;5.05;1.73;;;;;;;;;;5025644;28;20670;-82
2022/12/27 15:00:10;;;;;;;2.97;1.40;;;;;;;;;;5025202;28;20043;-82
2022/12/27 15:03:13;;;;;;;5.60;1.50;;;;;;;;;;5026702;28;20551;-82
2022/12/27 15:06:09;;;;;;;6.60;1.80;;;;;;;;;;5013455;28;20041;-83
2022/12/27 15:08:47;;;;;;;8.00;1.65;;;;;;;;;;5015097;28;20041;-82
2022/12/27 15:11:36;;;;;;;6.53;1.70;;;;;;;;;;5023365;28;20030;-82
2022/12/27 15:14:29;;;;;;;7.13;1.48;;;;;;;;;;5026086;28;20033;-82
2022/12/27 15:17:30;;;;;;;8.60;1.67;;;;;;;;;;5024039;28;20491;-82
2022/12/27 15:20:30;;;;;;;7.22;1.48;;;;;;;;;;5036777;28;20067;-82
2022/12/27 15:23:23;;;;;;;4.07;1.80;;;;;;;;;;5043349;28;20052;-82
2022/12/27 15:26:25;;;;;;;1.70;1.10;;;;;;;;;;5027674;28;20044;-82
2022/12/27 15:29:18;;;;;;;3.05;1.35;;;;;;;;;;5023759;28;20068;-82
2022/12/27 15:31:44;;;;;;;5.80;1.77;;;;;;;;;;5010822;28;20115;-82
2022/12/27 15:34:36;;;;;;;5.20;2.15;;;;;;;;;;5044547;28;20116;-81
2022/12/27 15:37:02;;;;;;;6.55;1.65;;;;;;;;;;5034452;28;20546;-81
2022/12/27 15:39:34;;;;;;;5.55;1.40;;;;;;;;;;5043486;28;20056;-83
2022/12/27 15:42:18;;;;;;;5.05;1.50;;;;;;;;;;5043943;28;20070;-83
2022/12/27 15:44:48;;;;;;;5.88;1.70;;;;;;;;;;5032336;28;20521;-82
2022/12/27 15:47:24;;;;;;;1.50;0.82;;;;;;;;;;5026858;28;20139;-84
2022/12/27 15:49:52;;;;;;;5.18;1.45;;;;;;;;;;5034837;28;20033;-83
2022/12/27 15:52:17;;;;;;;2.75;1.45;;;;;;;;;;5044404;28;20033;-81
2022/12/27 15:55:04;;;;;;;3.30;1.48;;;;;;;;;;5046068;28;20040;-83
2022/12/27 15:58:07;;;;;;;2.85;1.30;;;;;;;;;;5027635;28;20854;-83
2022/12/27 16:00:32;;;;;;;3.25;1.80;;;;;;;;;;5012051;28;20051;-83
2022/12/27 16:03:00;;;;;;;9.20;1.85;;;;;;;;;;5034391;28;20033;-81
2022/12/27 16:05:42;;;;;;;6.32;2.20;;;;;;;;;;5025695;28;20123;-82
2022/12/27 16:08:08;;;;;;;3.08;1.92;;;;;;;;;;5020272;28;20112;-82
2022/12/27 16:10:54;;;;;;;7.60;2.10;;;;;;;;;;5039406;28;20163;-83
2022/12/27 16:13:19;;;;;;;4.28;1.83;;;;;;;;;;5026839;28;20047;-83
2022/12/27 16:15:49;;;;;;;4.82;1.85;;;;;;;;;;5024194;28;20033;-83
2022/12/27 16:18:17;;;;;;;4.78;1.50;;;;;;;;;;5022225;28;20079;-83
2022/12/27 16:21:18;;;;;;;6.55;1.80;;;;;;;;;;5044122;28;20421;-81
2022/12/27 16:23:43;;;;;;;5.20;2.03;;;;;;;;;;5017200;28;20041;-84
2022/12/27 16:26:18;;;;;;;8.27;2.35;;;;;;;;;;5025376;28;20044;-83
2022/12/27 16:29:03;;;;;;;5.45;1.80;;;;;;;;;;5026020;28;20037;-83
2022/12/27 16:31:30;;;;;;;4.07;1.52;;;;;;;;;;5041810;28;20473;-78
2022/12/27 16:33:58;;;;;;;7.85;1.42;;;;;;;;;;5043751;28;20043;-83
2022/12/27 16:36:28;;;;;;;8.05;2.30;;;;;;;;;;5047337;28;20056;-83
2022/12/27 16:39:28;;;;;;;7.40;1.95;;;;;;;;;;5047611;28;20100;-83
2022/12/27 16:41:54;;;;;;;9.63;2.15;;;;;;;;;;5029985;28;20601;-84
2022/12/27 16:44:22;;;;;;;5.22;2.42;;;;;;;;;;5047957;28;20479;-84
2022/12/27 16:47:09;;;;;;;10.98;4.13;;;;;;;;;;5029951;28;20077;-84
2022/12/27 16:49:51;;;;;;;17.23;6.05;;;;;;;;;;5027872;28;20037;-84
2022/12/27 16:52:22;;;;;;;7.13;4.22;;;;;;;;;;5023367;28;20057;-85
2022/12/27 16:54:56;;;;;;;15.50;2.60;;;;;;;;;;5029235;28;20617;-84
2022/12/27 16:57:25;;;;;;;11.48;1.98;;;;;;;;;;5029240;28;20037;-84
2022/12/27 17:00:09;;;;;;;7.68;2.05;;;;;;;;;;5034100;28;20495;-82
2022/12/27 17:02:40;;;;;;;5.10;1.60;;;;;;;;;;5028143;28;20064;-85
2022/12/27 17:05:15;;;;;;;8.32;1.88;;;;;;;;;;5032124;28;20335;-84
2022/12/27 17:07:49;;;;;;;4.22;1.98;;;;;;;;;;5044104;28;20045;-84
2022/12/27 17:10:26;;;;;;;4.68;2.00;;;;;;;;;;5025783;28;20051;-85
2022/12/27 17:13:08;;;;;;;3.22;1.45;;;;;;;;;;5047996;28;20591;-85